createdAt,value
2022-10-17T00:00:06.266Z,69.54
2022-10-17T00:02:33.155Z,69.48
2022-10-17T00:05:00.273Z,69.12
2022-10-17T00:07:27.565Z,69.15
2022-10-17T00:09:55.583Z,69.67
2022-10-17T00:12:23.177Z,69.52
2022-10-17T00:14:51.247Z,69.50
2022-10-17T00:17:18.966Z,69.91
2022-10-17T00:19:51.865Z,70.03
2022-10-17T00:22:19.008Z,69.47
2022-10-17T00:24:46.171Z,69.85
2022-10-17T00:27:13.640Z,70.07
2022-10-17T00:29:41.080Z,70.04
2022-10-17T00:32:08.271Z,70.58
2022-10-17T00:34:35.266Z,70.35
2022-10-17T00:37:02.910Z,70.47
2022-10-17T00:39:30.051Z,70.72
2022-10-17T00:41:57.133Z,70.36
2022-10-17T00:44:30.370Z,70.48
2022-10-17T00:47:05.370Z,70.59
2022-10-17T00:49:39.064Z,70.78
2022-10-17T00:52:16.009Z,70.42
2022-10-17T00:54:51.938Z,71.02
2022-10-17T00:57:20.910Z,70.64
2022-10-17T00:59:53.145Z,71.22
2022-10-17T01:02:22.296Z,71.06
2022-10-17T01:04:55.232Z,70.65
2022-10-17T01:07:23.343Z,71.04
2022-10-17T01:09:50.694Z,71.45
2022-10-17T01:12:23.219Z,70.90
2022-10-17T01:14:56.878Z,71.17
2022-10-17T01:17:40.167Z,70.54
2022-10-17T01:20:44.415Z,70.97
2022-10-17T01:23:29.640Z,70.59
2022-10-17T01:26:09.038Z,70.83
2022-10-17T01:29:10.210Z,70.58
2022-10-17T01:31:41.775Z,70.66
2022-10-17T01:34:42.116Z,71.36
2022-10-17T01:37:21.928Z,70.74
2022-10-17T01:40:07.075Z,70.99
2022-10-17T01:42:54.973Z,70.89
2022-10-17T01:45:40.959Z,70.97
2022-10-17T01:48:15.105Z,71.39
2022-10-17T01:51:07.793Z,71.45
2022-10-17T01:53:41.969Z,71.26
2022-10-17T01:56:13.356Z,71.19
2022-10-17T01:58:46.701Z,70.84
2022-10-17T02:01:14.247Z,71.31
2022-10-17T02:03:43.919Z,70.93
2022-10-17T02:06:11.688Z,71.43
2022-10-17T02:08:48.006Z,71.42
2022-10-17T02:11:19.383Z,70.75
2022-10-17T02:14:01.887Z,71.16
2022-10-17T02:16:32.479Z,70.52
2022-10-17T02:19:12.127Z,70.87
2022-10-17T02:21:50.851Z,71.68
2022-10-17T02:24:27.731Z,71.17
2022-10-17T02:26:56.175Z,71.13
2022-10-17T02:29:31.798Z,70.78
2022-10-17T02:32:07.162Z,71.11
2022-10-17T02:34:46.235Z,70.98
2022-10-17T02:37:18.682Z,70.63
2022-10-17T02:39:47.766Z,70.80
2022-10-17T02:42:16.360Z,70.58
2022-10-17T02:44:45.248Z,71.17
2022-10-17T02:47:27.186Z,70.72
2022-10-17T02:49:59.197Z,71.04
2022-10-17T02:52:37.870Z,70.83
2022-10-17T02:55:08.592Z,70.34
2022-10-17T02:57:42.952Z,70.60
2022-10-17T03:00:13.278Z,70.63
2022-10-17T03:02:41.622Z,71.26
2022-10-17T03:05:11.497Z,70.87
2022-10-17T03:07:39.291Z,70.56
2022-10-17T03:10:07.594Z,70.80
2022-10-17T03:12:34.748Z,70.87
2022-10-17T03:15:02.451Z,70.31
2022-10-17T03:17:31.519Z,70.31
2022-10-17T03:19:59.117Z,70.44
2022-10-17T03:22:26.213Z,70.53
2022-10-17T03:24:53.375Z,70.28
2022-10-17T03:27:20.987Z,70.35
2022-10-17T03:29:48.248Z,70.43
2022-10-17T03:32:17.996Z,71.03
2022-10-17T03:34:46.031Z,70.76
2022-10-17T03:37:13.321Z,70.83
2022-10-17T03:39:41.815Z,71.18
2022-10-17T03:42:09.398Z,71.68
2022-10-17T03:44:36.822Z,71.80
2022-10-17T03:47:04.863Z,72.14
2022-10-17T03:49:32.371Z,71.93
2022-10-17T03:51:59.505Z,71.26
2022-10-17T03:54:28.224Z,71.65
2022-10-17T03:59:28.045Z,71.22
2022-10-17T04:02:02.898Z,71.19
2022-10-17T04:04:30.039Z,71.63
2022-10-17T04:06:57.985Z,71.36
2022-10-17T04:09:25.912Z,71.34
2022-10-17T04:12:01.416Z,70.99
2022-10-17T04:14:30.179Z,71.10
2022-10-17T04:16:58.551Z,71.28
2022-10-17T04:19:27.192Z,70.94
2022-10-17T04:21:54.828Z,70.88
2022-10-17T04:24:22.959Z,70.78
2022-10-17T04:26:56.713Z,70.25
2022-10-17T04:29:27.658Z,70.60
2022-10-17T04:32:04.351Z,70.21
2022-10-17T04:34:40.668Z,70.32
2022-10-17T04:37:08.011Z,69.89
2022-10-17T04:39:36.204Z,69.83
2022-10-17T04:42:03.674Z,69.84
2022-10-17T04:44:31.817Z,69.90
2022-10-17T04:46:59.282Z,69.42
2022-10-17T04:49:27.428Z,69.32
2022-10-17T04:51:59.681Z,69.74
2022-10-17T04:54:38.157Z,69.32
2022-10-17T04:57:09.658Z,69.52
2022-10-17T04:59:37.192Z,69.02
2022-10-17T05:02:24.722Z,69.53
2022-10-17T05:04:52.175Z,68.88
2022-10-17T05:07:21.715Z,68.75
2022-10-17T05:10:18.013Z,68.70
2022-10-17T05:12:49.853Z,68.69
2022-10-17T05:15:19.193Z,68.49
2022-10-17T05:17:46.539Z,68.46
2022-10-17T05:20:14.041Z,68.31
2022-10-17T05:22:42.401Z,67.88
2022-10-17T05:25:11.555Z,68.13
2022-10-17T05:27:39.525Z,68.08
2022-10-17T05:30:07.466Z,67.86
2022-10-17T05:32:36.691Z,67.26
2022-10-17T05:35:05.052Z,67.29
2022-10-17T05:37:33.058Z,67.52
2022-10-17T05:40:02.242Z,67.26
2022-10-17T05:42:31.375Z,67.13
2022-10-17T05:44:58.771Z,67.05
2022-10-17T05:47:27.154Z,67.08
2022-10-17T05:49:54.557Z,66.95
2022-10-17T05:52:28.304Z,67.05
2022-10-17T05:55:12.759Z,66.90
2022-10-17T05:57:40.630Z,66.92
2022-10-17T06:00:13.446Z,66.70
2022-10-17T06:02:48.247Z,66.58
2022-10-17T06:05:17.140Z,66.40
2022-10-17T06:07:44.873Z,66.13
2022-10-17T06:10:15.214Z,65.61
2022-10-17T06:12:44.068Z,65.49
2022-10-17T06:15:12.066Z,64.93
2022-10-17T06:17:41.570Z,64.84
2022-10-17T06:20:09.917Z,64.33
2022-10-17T06:22:36.968Z,64.54
2022-10-17T06:25:08.621Z,64.59
2022-10-17T06:27:35.809Z,64.40
2022-10-17T06:30:04.251Z,64.30
2022-10-17T06:32:32.283Z,64.63
2022-10-17T06:35:00.306Z,63.95
2022-10-17T06:37:35.593Z,64.01
2022-10-17T06:40:09.177Z,64.54
2022-10-17T06:42:39.256Z,64.63
2022-10-17T06:45:24.825Z,65.18
2022-10-17T06:48:12.182Z,65.41
2022-10-17T06:51:11.994Z,65.67
2022-10-17T06:53:49.775Z,65.24
2022-10-17T06:56:49.888Z,65.11
2022-10-17T06:59:26.296Z,64.62
2022-10-17T07:02:02.372Z,64.50
2022-10-17T07:04:30.842Z,64.16
2022-10-17T07:09:27.988Z,63.96
2022-10-17T07:11:57.890Z,63.37
2022-10-17T07:14:32.114Z,63.69
2022-10-17T07:17:00.456Z,62.69
2022-10-17T07:19:29.906Z,62.29
2022-10-17T07:21:57.311Z,61.85
2022-10-17T07:24:25.789Z,62.29
2022-10-17T07:26:58.794Z,61.58
2022-10-17T07:29:26.267Z,61.56
2022-10-17T07:32:09.076Z,61.63
2022-10-17T07:34:36.953Z,61.32
2022-10-17T07:37:07.121Z,61.55
2022-10-17T07:39:35.778Z,61.61
2022-10-17T07:42:05.335Z,61.17
2022-10-17T07:44:32.450Z,62.38
2022-10-17T07:47:01.270Z,62.56
2022-10-17T07:49:29.546Z,62.93
2022-10-17T07:51:56.816Z,62.82
2022-10-17T07:54:24.059Z,62.71
2022-10-17T07:56:51.157Z,62.66
2022-10-17T07:59:19.584Z,62.53
2022-10-17T08:01:47.194Z,62.66
2022-10-17T08:04:14.501Z,63.13
2022-10-17T08:06:41.794Z,63.54
2022-10-17T08:09:09.284Z,64.71
2022-10-17T08:11:37.329Z,65.22
2022-10-17T08:14:04.382Z,65.73
2022-10-17T08:16:31.585Z,65.00
2022-10-17T08:18:59.139Z,64.51
2022-10-17T08:21:26.320Z,63.68
2022-10-17T08:23:53.901Z,64.50
2022-10-17T08:26:20.986Z,64.86
2022-10-17T08:28:49.719Z,65.20
2022-10-17T08:31:19.300Z,64.94
2022-10-17T08:33:48.272Z,64.45
2022-10-17T08:36:18.945Z,63.31
2022-10-17T08:38:51.788Z,63.26
2022-10-17T08:41:25.953Z,62.28
2022-10-17T08:44:18.818Z,62.41
2022-10-17T08:46:50.004Z,61.32
2022-10-17T08:49:37.617Z,61.71
2022-10-17T08:52:17.243Z,62.20
2022-10-17T08:54:47.850Z,62.84
2022-10-17T08:57:30.994Z,64.08
2022-10-17T08:59:59.156Z,66.16
2022-10-17T09:02:48.622Z,66.80
2022-10-17T09:05:38.215Z,67.40
2022-10-17T09:08:30.006Z,67.84
2022-10-17T09:11:03.717Z,68.47
2022-10-17T09:13:48.777Z,69.16
2022-10-17T09:16:30.421Z,69.34
2022-10-17T09:19:08.987Z,71.13
2022-10-17T09:21:52.353Z,75.19
2022-10-17T09:24:27.939Z,78.55
2022-10-17T09:26:56.001Z,81.07
2022-10-17T09:29:28.636Z,82.51
2022-10-17T09:32:04.920Z,84.51
2022-10-17T09:34:33.049Z,86.01
2022-10-17T09:37:02.591Z,88.53
2022-10-17T09:39:33.254Z,90.74
2022-10-17T09:42:02.724Z,93.04
2022-10-17T09:44:31.303Z,94.12
2022-10-17T09:47:07.237Z,95.01
2022-10-17T09:49:38.172Z,96.39
2022-10-17T09:52:12.525Z,96.58
2022-10-17T09:54:44.559Z,96.60
2022-10-17T09:57:13.301Z,97.38
2022-10-17T09:59:46.992Z,98.00
2022-10-17T10:05:41.501Z,98.88
2022-10-17T10:08:17.687Z,99.53
2022-10-17T10:11:00.608Z,99.27
2022-10-17T10:13:29.168Z,99.49
2022-10-17T10:16:30.348Z,99.37
2022-10-17T10:18:58.547Z,98.62
2022-10-17T10:21:27.678Z,99.02
2022-10-17T10:24:09.874Z,98.45
2022-10-17T10:26:49.098Z,97.41
2022-10-17T10:29:21.533Z,97.53
2022-10-17T10:31:50.004Z,97.25
2022-10-17T10:34:22.594Z,97.18
2022-10-17T10:36:55.421Z,96.79
2022-10-17T10:39:32.384Z,96.52
2022-10-17T10:42:02.132Z,95.54
2022-10-17T10:44:32.282Z,95.61
2022-10-17T10:47:18.380Z,95.11
2022-10-17T10:49:45.932Z,94.81
2022-10-17T10:52:37.025Z,94.07
2022-10-17T10:55:16.441Z,94.26
2022-10-17T10:57:47.460Z,93.52
2022-10-17T11:00:17.476Z,92.78
2022-10-17T11:03:12.774Z,93.76
2022-10-17T11:05:51.338Z,93.45
2022-10-17T11:09:11.066Z,93.30
2022-10-17T11:11:48.049Z,93.01
2022-10-17T11:14:49.518Z,93.74
2022-10-17T11:17:37.072Z,93.42
2022-10-17T11:20:12.944Z,93.08
2022-10-17T11:22:48.929Z,93.42
2022-10-17T11:25:37.266Z,93.46
2022-10-17T11:28:14.987Z,93.38
2022-10-17T11:30:47.424Z,93.65
2022-10-17T11:33:30.724Z,93.57
2022-10-17T11:36:05.233Z,93.64
2022-10-17T11:39:01.962Z,93.81
2022-10-17T11:41:39.320Z,93.91
2022-10-17T11:44:22.843Z,93.67
2022-10-17T11:46:57.515Z,93.54
2022-10-17T11:49:34.209Z,93.67
2022-10-17T11:52:22.801Z,93.87
2022-10-17T11:55:10.972Z,94.18
2022-10-17T11:57:49.283Z,94.03
2022-10-17T12:00:40.717Z,93.99
2022-10-17T12:03:33.777Z,94.17
2022-10-17T12:06:04.895Z,94.19
2022-10-17T12:09:01.892Z,94.29
2022-10-17T12:11:45.895Z,94.23
2022-10-17T12:14:39.454Z,94.52
2022-10-17T12:17:21.219Z,94.04
2022-10-17T12:19:48.864Z,94.33
2022-10-17T12:22:21.371Z,94.42
2022-10-17T12:25:03.324Z,94.86
2022-10-17T12:27:43.845Z,95.07
2022-10-17T12:30:26.216Z,94.84
2022-10-17T12:33:07.392Z,94.73
2022-10-17T12:35:37.589Z,95.04
2022-10-17T12:38:27.560Z,95.28
2022-10-17T12:40:56.996Z,95.84
2022-10-17T12:43:30.075Z,96.08
2022-10-17T12:46:05.372Z,96.09
2022-10-17T12:48:38.524Z,96.21
2022-10-17T12:54:07.217Z,96.70
2022-10-17T12:56:45.599Z,96.75
2022-10-17T12:59:21.765Z,97.03
2022-10-17T13:01:54.138Z,97.25
2022-10-17T13:04:22.175Z,97.14
2022-10-17T13:06:54.893Z,97.15
2022-10-17T13:09:28.085Z,97.10
2022-10-17T13:12:03.246Z,97.02
2022-10-17T13:14:35.563Z,97.62
2022-10-17T13:17:05.518Z,97.84
2022-10-17T13:19:43.334Z,97.76
2022-10-17T13:22:15.085Z,97.88
2022-10-17T13:24:42.430Z,98.29
2022-10-17T13:27:26.826Z,98.10
2022-10-17T13:29:56.462Z,97.87
2022-10-17T13:32:25.841Z,98.01
2022-10-17T13:35:13.353Z,98.02
2022-10-17T13:37:42.925Z,97.86
2022-10-17T13:43:20.015Z,97.82
2022-10-17T13:45:52.501Z,97.53
2022-10-17T13:48:28.714Z,97.75
2022-10-17T13:51:02.422Z,97.54
2022-10-17T13:53:34.621Z,97.33
2022-10-17T13:56:26.931Z,97.50
2022-10-17T13:58:57.544Z,97.87
2022-10-17T14:01:28.666Z,97.84
2022-10-17T14:04:07.651Z,97.76
2022-10-17T14:06:40.990Z,97.89
2022-10-17T14:09:28.408Z,97.32
2022-10-17T14:12:08.789Z,97.76
2022-10-17T14:14:58.054Z,97.39
2022-10-17T14:17:27.346Z,97.23
2022-10-17T14:20:34.119Z,97.04
2022-10-17T14:22:54.551Z,97.58
2022-10-17T14:25:38.116Z,97.17
2022-10-17T14:28:15.274Z,97.89
2022-10-17T14:30:57.122Z,97.60
2022-10-17T14:33:29.659Z,97.76
2022-10-17T14:35:59.136Z,97.13
2022-10-17T14:38:27.561Z,97.27
2022-10-17T14:41:37.425Z,97.16
2022-10-17T14:43:58.687Z,97.21
2022-10-17T14:46:26.330Z,97.43
2022-10-17T14:49:04.714Z,97.62
2022-10-17T14:51:44.675Z,97.92
2022-10-17T14:54:27.131Z,98.07
2022-10-17T14:56:55.062Z,97.91
2022-10-17T14:59:52.259Z,98.12
2022-10-17T15:02:14.260Z,98.45
2022-10-17T15:04:41.906Z,98.97
2022-10-17T15:07:17.339Z,99.15
2022-10-17T15:09:47.467Z,99.31
2022-10-17T15:12:19.895Z,99.24
2022-10-17T15:14:48.834Z,99.57
2022-10-17T15:17:23.672Z,99.54
2022-10-17T15:19:50.985Z,99.24
2022-10-17T15:22:18.623Z,99.52
2022-10-17T15:24:46.818Z,99.16
2022-10-17T15:27:22.276Z,99.18
2022-10-17T15:29:50.659Z,99.06
2022-10-17T15:32:18.010Z,98.87
2022-10-17T15:34:45.401Z,99.29
2022-10-17T15:37:22.202Z,98.78
2022-10-17T15:39:54.801Z,99.01
2022-10-17T15:42:30.264Z,99.11
2022-10-17T15:44:58.470Z,99.03
2022-10-17T15:47:33.868Z,98.58
2022-10-17T15:50:40.624Z,98.08
2022-10-17T15:53:35.581Z,98.58
2022-10-17T15:56:03.856Z,98.24
2022-10-17T15:58:36.324Z,97.87
2022-10-17T16:01:05.561Z,97.79
2022-10-17T16:03:34.224Z,98.02
2022-10-17T16:06:01.563Z,97.56
2022-10-17T16:08:29.940Z,98.21
2022-10-17T16:10:57.540Z,97.95
2022-10-17T16:13:25.203Z,97.42
2022-10-17T16:15:52.809Z,97.78
2022-10-17T16:18:21.330Z,97.19
2022-10-17T16:20:48.655Z,97.47
2022-10-17T16:23:15.736Z,97.81
2022-10-17T16:25:43.133Z,97.86
2022-10-17T16:28:12.010Z,97.51
2022-10-17T16:30:45.045Z,97.58
2022-10-17T16:33:12.818Z,97.34
2022-10-17T16:35:39.925Z,97.41
2022-10-17T16:38:08.263Z,96.87
2022-10-17T16:40:38.782Z,97.15
2022-10-17T16:43:06.135Z,96.96
2022-10-17T16:45:33.397Z,96.92
2022-10-17T16:48:00.709Z,97.01
2022-10-17T16:50:28.293Z,96.84
2022-10-17T16:52:55.883Z,96.28
2022-10-17T16:55:23.917Z,96.61
2022-10-17T16:57:51.005Z,96.14
2022-10-17T17:00:19.065Z,96.06
2022-10-17T17:02:49.260Z,96.14
2022-10-17T17:05:16.524Z,95.71
2022-10-17T17:07:43.587Z,96.02
2022-10-17T17:10:11.379Z,96.15
2022-10-17T17:12:39.647Z,96.00
2022-10-17T17:15:07.019Z,95.93
2022-10-17T17:17:49.742Z,96.21
2022-10-17T17:20:19.695Z,95.69
2022-10-17T17:22:48.749Z,95.84
2022-10-17T17:25:16.873Z,95.69
2022-10-17T17:27:44.620Z,95.55
2022-10-17T17:30:12.371Z,95.62
2022-10-17T17:32:40.096Z,95.49
2022-10-17T17:35:07.605Z,95.45
2022-10-17T17:37:35.045Z,95.18
2022-10-17T17:40:02.153Z,95.20
2022-10-17T17:42:30.338Z,94.98
2022-10-17T17:44:57.509Z,95.22
2022-10-17T17:47:24.541Z,95.02
2022-10-17T17:49:51.574Z,94.89
2022-10-17T17:52:18.632Z,94.81
2022-10-17T17:54:45.759Z,95.02
2022-10-17T17:57:12.930Z,95.08
2022-10-17T17:59:41.331Z,94.95
2022-10-17T18:02:11.221Z,95.40
2022-10-17T18:04:39.382Z,95.17
2022-10-17T18:07:06.790Z,95.17
2022-10-17T18:09:34.964Z,95.37
2022-10-17T18:12:11.219Z,95.21
2022-10-17T18:14:40.083Z,95.11
2022-10-17T18:17:07.337Z,95.34
2022-10-17T18:19:36.687Z,95.33
2022-10-17T18:22:04.088Z,95.65
2022-10-17T18:24:31.368Z,95.92
2022-10-17T18:26:59.976Z,95.29
2022-10-17T18:29:29.639Z,95.66
2022-10-17T18:31:57.804Z,95.40
2022-10-17T18:34:35.042Z,95.22
2022-10-17T18:37:03.693Z,95.42
2022-10-17T18:39:31.030Z,95.72
2022-10-17T18:41:58.681Z,95.55
2022-10-17T18:44:26.175Z,95.28
2022-10-17T18:46:58.598Z,95.25
2022-10-17T18:49:30.112Z,95.58
2022-10-17T18:51:59.673Z,95.65
2022-10-17T18:54:26.913Z,96.37
2022-10-17T18:56:56.840Z,96.59
2022-10-17T18:59:25.707Z,96.64
2022-10-17T19:01:52.871Z,96.64
2022-10-17T19:04:20.532Z,96.55
2022-10-17T19:06:49.828Z,96.60
2022-10-17T19:09:18.087Z,96.89
2022-10-17T19:11:45.554Z,96.51
2022-10-17T19:14:14.285Z,96.86
2022-10-17T19:16:49.056Z,96.56
2022-10-17T19:19:21.841Z,96.50
2022-10-17T19:21:53.705Z,96.21
2022-10-17T19:24:24.565Z,96.47
2022-10-17T19:26:54.205Z,96.52
2022-10-17T19:29:25.127Z,96.97
2022-10-17T19:31:53.530Z,96.30
2022-10-17T19:34:21.789Z,96.91
2022-10-17T19:36:49.478Z,96.71
2022-10-17T19:39:23.425Z,97.20
2022-10-17T19:41:50.819Z,96.93
2022-10-17T19:44:18.524Z,96.97
2022-10-17T19:46:47.245Z,97.33
2022-10-17T19:49:15.447Z,96.65
2022-10-17T19:51:42.615Z,97.60
2022-10-17T19:54:10.284Z,97.56
2022-10-17T19:56:38.467Z,97.39
2022-10-17T19:59:06.874Z,96.88
2022-10-17T20:01:39.673Z,97.05
2022-10-17T20:04:11.002Z,96.75
2022-10-17T20:06:39.058Z,96.78
2022-10-17T20:09:09.826Z,96.68
2022-10-17T20:11:39.780Z,96.93
2022-10-17T20:14:07.006Z,96.86
2022-10-17T20:16:36.000Z,97.55
2022-10-17T20:19:10.784Z,97.72
2022-10-17T20:21:39.740Z,98.03
2022-10-17T20:24:11.371Z,98.16
2022-10-17T20:26:39.451Z,99.16
2022-10-17T20:29:21.969Z,99.18
2022-10-17T20:31:49.245Z,99.08
2022-10-17T20:34:18.630Z,99.24
2022-10-17T20:36:46.429Z,99.37
2022-10-17T20:39:15.773Z,99.53
2022-10-17T20:41:43.241Z,99.94
2022-10-17T20:44:11.495Z,99.95
2022-10-17T20:46:52.694Z,99.74
2022-10-17T20:49:26.794Z,100.00
2022-10-17T20:51:53.724Z,100.00
2022-10-17T20:54:22.024Z,100.00
2022-10-17T20:56:49.077Z,100.00
2022-10-17T20:59:18.028Z,100.00
2022-10-17T21:01:46.272Z,100.00
2022-10-17T21:07:01.390Z,100.00
2022-10-17T21:09:28.581Z,100.00
2022-10-17T21:11:56.999Z,100.00
2022-10-17T21:14:25.467Z,100.00
2022-10-17T21:16:52.881Z,100.00
2022-10-17T21:19:21.735Z,100.00
2022-10-17T21:21:49.053Z,100.00
2022-10-17T21:24:18.166Z,100.00
2022-10-17T21:26:46.634Z,100.00
2022-10-17T21:29:14.245Z,100.00
2022-10-17T21:31:43.675Z,100.00
2022-10-17T21:34:17.715Z,100.00
2022-10-17T21:36:45.364Z,100.00
2022-10-17T21:39:14.360Z,100.00
2022-10-17T21:41:42.449Z,100.00
2022-10-17T21:44:15.569Z,100.00
2022-10-17T21:46:43.329Z,100.00
2022-10-17T21:49:15.637Z,100.00
2022-10-17T21:51:44.740Z,100.00
2022-10-17T21:54:12.152Z,100.00
2022-10-17T21:56:39.732Z,100.00
2022-10-17T21:59:07.113Z,100.00
2022-10-17T22:01:36.668Z,100.00
2022-10-17T22:04:06.245Z,100.00
2022-10-17T22:06:40.537Z,100.00
2022-10-17T22:09:18.918Z,100.00
2022-10-17T22:11:48.625Z,100.00
2022-10-17T22:14:19.002Z,100.00
2022-10-17T22:16:46.882Z,100.00
2022-10-17T22:19:16.988Z,99.80
2022-10-17T22:21:43.952Z,99.88
2022-10-17T22:24:14.727Z,100.00
2022-10-17T22:26:42.541Z,99.81
2022-10-17T22:29:09.622Z,100.00
2022-10-17T22:31:38.365Z,99.89
2022-10-17T22:34:07.392Z,99.27
2022-10-17T22:36:35.584Z,99.79
2022-10-17T22:39:03.666Z,99.89
2022-10-17T22:41:30.738Z,100.00
2022-10-17T22:43:58.062Z,100.00
2022-10-17T22:46:25.888Z,100.00
2022-10-17T22:48:52.922Z,100.00
2022-10-17T22:51:20.155Z,100.00
2022-10-17T22:53:47.656Z,100.00
2022-10-17T22:56:18.902Z,100.00
2022-10-17T22:58:46.361Z,100.00
2022-10-17T23:01:16.711Z,100.00
2022-10-17T23:03:44.174Z,100.00
2022-10-17T23:06:11.800Z,100.00
2022-10-17T23:08:39.690Z,100.00
2022-10-17T23:11:08.112Z,100.00
2022-10-17T23:13:35.710Z,100.00
2022-10-17T23:16:03.824Z,100.00
2022-10-17T23:21:02.841Z,100.00
2022-10-17T23:23:29.946Z,100.00
2022-10-17T23:26:10.876Z,100.00
2022-10-17T23:28:38.599Z,100.00
2022-10-17T23:31:13.981Z,100.00
2022-10-17T23:33:41.810Z,100.00
2022-10-17T23:36:11.148Z,100.00
2022-10-17T23:38:39.383Z,100.00
2022-10-17T23:41:06.748Z,100.00
2022-10-17T23:43:34.552Z,100.00
2022-10-17T23:46:02.426Z,100.00
2022-10-17T23:48:29.769Z,100.00
2022-10-17T23:50:57.250Z,100.00
2022-10-17T23:53:24.927Z,100.00
2022-10-17T23:55:52.013Z,100.00
2022-10-17T23:58:18.921Z,100.00
